sensor_id;sensor_type;location;lat;lon;timestamp;temperature;humidity
9167;DHT22;4618;48.818;9.088;2023-08-12T00:00:16;18.70;99.90
9167;DHT22;4618;48.818;9.088;2023-08-12T00:02:43;18.70;99.90
9167;DHT22;4618;48.818;9.088;2023-08-12T00:05:09;18.80;54.00
9167;DHT22;4618;48.818;9.088;2023-08-12T00:07:40;18.90;1.00
9167;DHT22;4618;48.818;9.088;2023-08-12T00:10:10;18.90;99.90
9167;DHT22;4618;48.818;9.088;2023-08-12T00:12:36;19.00;99.90
9167;DHT22;4618;48.818;9.088;2023-08-12T00:15:03;19.10;99.90
9167;DHT22;4618;48.818;9.088;2023-08-12T00:17:31;19.00;1.40
9167;DHT22;4618;48.818;9.088;2023-08-12T00:19:57;18.90;99.90
9167;DHT22;4618;48.818;9.088;2023-08-12T00:22:23;19.00;99.90
9167;DHT22;4618;48.818;9.088;2023-08-12T00:24:49;19.00;80.30
9167;DHT22;4618;48.818;9.088;2023-08-12T00:27:14;18.90;52.60
9167;DHT22;4618;48.818;9.088;2023-08-12T00:29:40;18.80;99.90
9167;DHT22;4618;48.818;9.088;2023-08-12T00:32:08;18.70;1.00
9167;DHT22;4618;48.818;9.088;2023-08-12T00:34:33;18.70;1.00
9167;DHT22;4618;48.818;9.088;2023-08-12T00:36:59;18.50;99.90
9167;DHT22;4618;48.818;9.088;2023-08-12T00:39:24;18.60;99.90
9167;DHT22;4618;48.818;9.088;2023-08-12T00:41:50;18.50;99.90
9167;DHT22;4618;48.818;9.088;2023-08-12T00:44:16;18.50;99.90
9167;DHT22;4618;48.818;9.088;2023-08-12T00:46:42;18.50;99.90
9167;DHT22;4618;48.818;9.088;2023-08-12T00:49:09;18.50;99.90
9167;DHT22;4618;48.818;9.088;2023-08-12T00:51:35;18.40;99.90
9167;DHT22;4618;48.818;9.088;2023-08-12T00:54:04;18.40;99.90
9167;DHT22;4618;48.818;9.088;2023-08-12T00:56:31;18.30;99.90
9167;DHT22;4618;48.818;9.088;2023-08-12T00:58:59;18.30;1.00
9167;DHT22;4618;48.818;9.088;2023-08-12T01:01:25;18.20;1.00
9167;DHT22;4618;48.818;9.088;2023-08-12T01:03:51;18.20;1.00
9167;DHT22;4618;48.818;9.088;2023-08-12T01:06:17;18.30;1.00
9167;DHT22;4618;48.818;9.088;2023-08-12T01:08:43;18.30;1.00
9167;DHT22;4618;48.818;9.088;2023-08-12T01:11:12;18.30;1.00
9167;DHT22;4618;48.818;9.088;2023-08-12T01:13:49;18.30;1.00
9167;DHT22;4618;48.818;9.088;2023-08-12T01:16:18;18.30;1.00
9167;DHT22;4618;48.818;9.088;2023-08-12T01:18:46;18.30;1.00
9167;DHT22;4618;48.818;9.088;2023-08-12T01:21:16;18.30;1.00
9167;DHT22;4618;48.818;9.088;2023-08-12T01:23:42;18.10;1.00
9167;DHT22;4618;48.818;9.088;2023-08-12T01:26:08;18.10;1.00
9167;DHT22;4618;48.818;9.088;2023-08-12T01:28:34;18.00;1.00
9167;DHT22;4618;48.818;9.088;2023-08-12T01:31:08;17.90;1.00
9167;DHT22;4618;48.818;9.088;2023-08-12T01:33:39;17.80;9.60
9167;DHT22;4618;48.818;9.088;2023-08-12T01:36:17;17.80;46.50
9167;DHT22;4618;48.818;9.088;2023-08-12T01:38:43;17.90;1.00
9167;DHT22;4618;48.818;9.088;2023-08-12T01:41:10;17.90;17.70
9167;DHT22;4618;48.818;9.088;2023-08-12T01:43:37;17.80;33.60
9167;DHT22;4618;48.818;9.088;2023-08-12T01:46:03;17.80;98.80
9167;DHT22;4618;48.818;9.088;2023-08-12T01:48:28;17.80;98.40
9167;DHT22;4618;48.818;9.088;2023-08-12T01:50:54;17.80;99.90
9167;DHT22;4618;48.818;9.088;2023-08-12T01:53:19;17.90;99.90
9167;DHT22;4618;48.818;9.088;2023-08-12T01:55:45;17.90;1.00
9167;DHT22;4618;48.818;9.088;2023-08-12T01:58:11;18.00;1.00
9167;DHT22;4618;48.818;9.088;2023-08-12T02:00:36;18.00;1.00
9167;DHT22;4618;48.818;9.088;2023-08-12T02:03:03;18.00;1.00
9167;DHT22;4618;48.818;9.088;2023-08-12T02:05:28;18.10;1.00
9167;DHT22;4618;48.818;9.088;2023-08-12T02:07:54;18.20;1.00
9167;DHT22;4618;48.818;9.088;2023-08-12T02:10:19;18.20;1.00
9167;DHT22;4618;48.818;9.088;2023-08-12T02:12:45;18.20;1.00
9167;DHT22;4618;48.818;9.088;2023-08-12T02:15:11;18.20;1.00
9167;DHT22;4618;48.818;9.088;2023-08-12T02:17:36;18.30;1.00
9167;DHT22;4618;48.818;9.088;2023-08-12T02:20:02;18.40;99.90
9167;DHT22;4618;48.818;9.088;2023-08-12T02:22:29;18.40;99.90
9167;DHT22;4618;48.818;9.088;2023-08-12T02:24:55;18.50;99.90
9167;DHT22;4618;48.818;9.088;2023-08-12T02:27:20;18.30;99.90
9167;DHT22;4618;48.818;9.088;2023-08-12T02:29:46;18.30;99.90
9167;DHT22;4618;48.818;9.088;2023-08-12T02:32:11;18.30;99.90
9167;DHT22;4618;48.818;9.088;2023-08-12T02:34:37;18.30;99.90
9167;DHT22;4618;48.818;9.088;2023-08-12T02:37:02;18.30;99.90
9167;DHT22;4618;48.818;9.088;2023-08-12T02:39:28;18.20;99.90
9167;DHT22;4618;48.818;9.088;2023-08-12T02:41:54;18.30;1.00
9167;DHT22;4618;48.818;9.088;2023-08-12T02:44:19;18.30;1.00
9167;DHT22;4618;48.818;9.088;2023-08-12T02:46:45;18.40;99.90
9167;DHT22;4618;48.818;9.088;2023-08-12T02:49:10;18.30;99.90
9167;DHT22;4618;48.818;9.088;2023-08-12T02:51:36;18.40;99.90
9167;DHT22;4618;48.818;9.088;2023-08-12T02:54:01;18.40;99.90
9167;DHT22;4618;48.818;9.088;2023-08-12T02:56:27;18.60;99.90
9167;DHT22;4618;48.818;9.088;2023-08-12T02:58:53;18.50;99.90
9167;DHT22;4618;48.818;9.088;2023-08-12T03:01:18;18.70;99.90
9167;DHT22;4618;48.818;9.088;2023-08-12T03:03:44;18.90;1.00
9167;DHT22;4618;48.818;9.088;2023-08-12T03:06:10;18.90;1.00
9167;DHT22;4618;48.818;9.088;2023-08-12T03:08:35;19.00;1.00
9167;DHT22;4618;48.818;9.088;2023-08-12T03:11:02;18.90;1.00
9167;DHT22;4618;48.818;9.088;2023-08-12T03:13:28;18.80;1.00
9167;DHT22;4618;48.818;9.088;2023-08-12T03:15:54;18.80;2.40
9167;DHT22;4618;48.818;9.088;2023-08-12T03:18:20;18.80;26.00
9167;DHT22;4618;48.818;9.088;2023-08-12T03:20:46;18.80;17.70
9167;DHT22;4618;48.818;9.088;2023-08-12T03:23:11;18.90;1.00
9167;DHT22;4618;48.818;9.088;2023-08-12T03:25:37;19.00;1.00
9167;DHT22;4618;48.818;9.088;2023-08-12T03:28:02;18.90;1.00
9167;DHT22;4618;48.818;9.088;2023-08-12T03:30:28;18.80;1.00
9167;DHT22;4618;48.818;9.088;2023-08-12T03:32:53;18.80;69.30
9167;DHT22;4618;48.818;9.088;2023-08-12T03:35:19;18.80;55.20
9167;DHT22;4618;48.818;9.088;2023-08-12T03:37:45;18.90;1.00
9167;DHT22;4618;48.818;9.088;2023-08-12T03:40:10;19.00;1.00
9167;DHT22;4618;48.818;9.088;2023-08-12T03:42:36;19.10;1.00
9167;DHT22;4618;48.818;9.088;2023-08-12T03:45:02;19.20;1.00
9167;DHT22;4618;48.818;9.088;2023-08-12T03:47:27;19.10;1.00
9167;DHT22;4618;48.818;9.088;2023-08-12T03:49:53;19.10;1.00
9167;DHT22;4618;48.818;9.088;2023-08-12T03:52:18;19.20;1.00
9167;DHT22;4618;48.818;9.088;2023-08-12T03:54:44;19.20;1.00
9167;DHT22;4618;48.818;9.088;2023-08-12T03:57:10;19.10;1.00
9167;DHT22;4618;48.818;9.088;2023-08-12T03:59:36;19.20;1.00
9167;DHT22;4618;48.818;9.088;2023-08-12T04:02:01;19.20;1.00
9167;DHT22;4618;48.818;9.088;2023-08-12T04:04:27;19.10;1.00
9167;DHT22;4618;48.818;9.088;2023-08-12T04:06:53;19.30;1.00
9167;DHT22;4618;48.818;9.088;2023-08-12T04:09:19;19.30;99.90
9167;DHT22;4618;48.818;9.088;2023-08-12T04:11:45;19.30;1.00
9167;DHT22;4618;48.818;9.088;2023-08-12T04:14:12;19.40;99.90
9167;DHT22;4618;48.818;9.088;2023-08-12T04:16:38;19.50;99.90
9167;DHT22;4618;48.818;9.088;2023-08-12T04:19:03;19.60;99.90
9167;DHT22;4618;48.818;9.088;2023-08-12T04:21:29;19.50;99.90
9167;DHT22;4618;48.818;9.088;2023-08-12T04:23:54;19.60;99.90
9167;DHT22;4618;48.818;9.088;2023-08-12T04:26:20;19.60;99.90
9167;DHT22;4618;48.818;9.088;2023-08-12T04:28:46;19.40;99.90
9167;DHT22;4618;48.818;9.088;2023-08-12T04:31:11;19.30;1.00
9167;DHT22;4618;48.818;9.088;2023-08-12T04:33:37;19.40;99.90
9167;DHT22;4618;48.818;9.088;2023-08-12T04:36:03;19.30;1.00
9167;DHT22;4618;48.818;9.088;2023-08-12T04:38:28;19.30;1.00
9167;DHT22;4618;48.818;9.088;2023-08-12T04:40:54;19.20;1.00
9167;DHT22;4618;48.818;9.088;2023-08-12T04:43:20;19.20;1.00
9167;DHT22;4618;48.818;9.088;2023-08-12T04:45:46;19.20;1.00
9167;DHT22;4618;48.818;9.088;2023-08-12T04:48:12;19.30;1.00
9167;DHT22;4618;48.818;9.088;2023-08-12T04:50:39;19.10;1.00
9167;DHT22;4618;48.818;9.088;2023-08-12T04:53:05;19.30;1.00
9167;DHT22;4618;48.818;9.088;2023-08-12T04:55:31;19.40;1.00
9167;DHT22;4618;48.818;9.088;2023-08-12T04:57:57;19.50;1.00
9167;DHT22;4618;48.818;9.088;2023-08-12T05:00:22;19.60;99.90
9167;DHT22;4618;48.818;9.088;2023-08-12T05:02:48;19.60;99.90
9167;DHT22;4618;48.818;9.088;2023-08-12T05:05:14;19.70;99.90
9167;DHT22;4618;48.818;9.088;2023-08-12T05:07:40;19.70;99.90
9167;DHT22;4618;48.818;9.088;2023-08-12T05:10:06;19.80;99.90
9167;DHT22;4618;48.818;9.088;2023-08-12T05:12:31;19.70;1.00
9167;DHT22;4618;48.818;9.088;2023-08-12T05:14:57;19.70;1.00
9167;DHT22;4618;48.818;9.088;2023-08-12T05:17:23;19.60;34.60
9167;DHT22;4618;48.818;9.088;2023-08-12T05:19:48;19.40;99.90
9167;DHT22;4618;48.818;9.088;2023-08-12T05:22:15;19.40;99.90
9167;DHT22;4618;48.818;9.088;2023-08-12T05:24:40;19.60;99.90
9167;DHT22;4618;48.818;9.088;2023-08-12T05:27:06;19.60;1.00
9167;DHT22;4618;48.818;9.088;2023-08-12T05:29:31;19.60;9.20
9167;DHT22;4618;48.818;9.088;2023-08-12T05:31:57;19.90;1.00
9167;DHT22;4618;48.818;9.088;2023-08-12T05:34:22;20.10;99.90
9167;DHT22;4618;48.818;9.088;2023-08-12T05:36:48;20.10;99.90
9167;DHT22;4618;48.818;9.088;2023-08-12T05:39:14;20.00;42.60
9167;DHT22;4618;48.818;9.088;2023-08-12T05:41:41;19.80;99.90
9167;DHT22;4618;48.818;9.088;2023-08-12T05:44:06;19.60;1.00
9167;DHT22;4618;48.818;9.088;2023-08-12T05:46:32;19.50;1.00
9167;DHT22;4618;48.818;9.088;2023-08-12T05:48:58;19.40;76.90
9167;DHT22;4618;48.818;9.088;2023-08-12T05:51:23;19.30;99.90
9167;DHT22;4618;48.818;9.088;2023-08-12T05:53:49;19.40;99.90
9167;DHT22;4618;48.818;9.088;2023-08-12T05:56:14;19.40;99.90
9167;DHT22;4618;48.818;9.088;2023-08-12T05:58:40;19.50;1.00
9167;DHT22;4618;48.818;9.088;2023-08-12T06:01:05;19.70;1.00
9167;DHT22;4618;48.818;9.088;2023-08-12T06:03:31;19.80;99.90
9167;DHT22;4618;48.818;9.088;2023-08-12T06:05:56;19.90;63.20
9167;DHT22;4618;48.818;9.088;2023-08-12T06:08:22;20.00;1.00
9167;DHT22;4618;48.818;9.088;2023-08-12T06:10:47;20.10;1.00
9167;DHT22;4618;48.818;9.088;2023-08-12T06:13:13;20.00;27.00
9167;DHT22;4618;48.818;9.088;2023-08-12T06:15:39;20.00;30.20
9167;DHT22;4618;48.818;9.088;2023-08-12T06:18:05;20.10;1.00
9167;DHT22;4618;48.818;9.088;2023-08-12T06:20:30;20.00;1.00
9167;DHT22;4618;48.818;9.088;2023-08-12T06:22:56;20.10;1.00
9167;DHT22;4618;48.818;9.088;2023-08-12T06:25:22;20.30;1.00
9167;DHT22;4618;48.818;9.088;2023-08-12T06:27:47;20.40;1.00
9167;DHT22;4618;48.818;9.088;2023-08-12T06:30:13;20.50;1.00
9167;DHT22;4618;48.818;9.088;2023-08-12T06:32:39;20.60;1.00
9167;DHT22;4618;48.818;9.088;2023-08-12T06:35:05;21.00;17.80
9167;DHT22;4618;48.818;9.088;2023-08-12T06:37:31;21.40;1.00
9167;DHT22;4618;48.818;9.088;2023-08-12T06:39:57;21.70;1.00
9167;DHT22;4618;48.818;9.088;2023-08-12T06:42:23;21.90;1.00
9167;DHT22;4618;48.818;9.088;2023-08-12T06:44:56;22.30;1.00
9167;DHT22;4618;48.818;9.088;2023-08-12T06:47:22;22.60;99.90
9167;DHT22;4618;48.818;9.088;2023-08-12T06:49:48;22.70;1.00
9167;DHT22;4618;48.818;9.088;2023-08-12T06:52:14;23.00;29.20
9167;DHT22;4618;48.818;9.088;2023-08-12T06:54:39;23.30;1.00
9167;DHT22;4618;48.818;9.088;2023-08-12T06:57:05;23.40;99.90
9167;DHT22;4618;48.818;9.088;2023-08-12T06:59:31;23.60;99.90
9167;DHT22;4618;48.818;9.088;2023-08-12T07:01:56;23.70;99.90
9167;DHT22;4618;48.818;9.088;2023-08-12T07:04:22;23.90;84.60
9167;DHT22;4618;48.818;9.088;2023-08-12T07:06:47;24.10;1.00
9167;DHT22;4618;48.818;9.088;2023-08-12T07:09:13;24.40;99.90
9167;DHT22;4618;48.818;9.088;2023-08-12T07:11:39;24.40;99.90
9167;DHT22;4618;48.818;9.088;2023-08-12T07:14:05;24.50;99.90
9167;DHT22;4618;48.818;9.088;2023-08-12T07:16:30;24.40;1.00
9167;DHT22;4618;48.818;9.088;2023-08-12T07:18:56;24.10;1.00
9167;DHT22;4618;48.818;9.088;2023-08-12T07:21:22;24.00;99.90
9167;DHT22;4618;48.818;9.088;2023-08-12T07:23:47;24.10;99.90
9167;DHT22;4618;48.818;9.088;2023-08-12T07:26:13;24.00;99.90
9167;DHT22;4618;48.818;9.088;2023-08-12T07:28:38;24.20;99.90
9167;DHT22;4618;48.818;9.088;2023-08-12T07:31:04;24.30;1.00
9167;DHT22;4618;48.818;9.088;2023-08-12T07:33:30;24.40;1.00
9167;DHT22;4618;48.818;9.088;2023-08-12T07:35:55;24.50;1.00
9167;DHT22;4618;48.818;9.088;2023-08-12T07:38:21;24.50;99.90
9167;DHT22;4618;48.818;9.088;2023-08-12T07:40:48;24.80;99.90
9167;DHT22;4618;48.818;9.088;2023-08-12T07:43:14;24.80;99.90
9167;DHT22;4618;48.818;9.088;2023-08-12T07:45:40;25.00;99.90
9167;DHT22;4618;48.818;9.088;2023-08-12T07:48:05;25.20;89.80
9167;DHT22;4618;48.818;9.088;2023-08-12T07:50:31;25.50;1.00
9167;DHT22;4618;48.818;9.088;2023-08-12T07:52:57;25.90;1.00
9167;DHT22;4618;48.818;9.088;2023-08-12T07:55:22;26.40;99.90
9167;DHT22;4618;48.818;9.088;2023-08-12T07:57:48;26.80;99.90
9167;DHT22;4618;48.818;9.088;2023-08-12T08:00:13;27.20;99.90
9167;DHT22;4618;48.818;9.088;2023-08-12T08:02:39;27.80;99.90
9167;DHT22;4618;48.818;9.088;2023-08-12T08:05:05;27.90;99.90
9167;DHT22;4618;48.818;9.088;2023-08-12T08:07:31;27.70;99.90
9167;DHT22;4618;48.818;9.088;2023-08-12T08:09:57;28.40;99.90
9167;DHT22;4618;48.818;9.088;2023-08-12T08:12:23;29.30;99.90
9167;DHT22;4618;48.818;9.088;2023-08-12T08:17:15;30.10;96.10
9167;DHT22;4618;48.818;9.088;2023-08-12T08:19:40;30.60;97.30
9167;DHT22;4618;48.818;9.088;2023-08-12T08:22:06;30.70;92.50
9167;DHT22;4618;48.818;9.088;2023-08-12T08:24:31;30.50;90.00
9167;DHT22;4618;48.818;9.088;2023-08-12T08:26:57;30.00;89.90
9167;DHT22;4618;48.818;9.088;2023-08-12T08:29:23;29.70;90.60
9167;DHT22;4618;48.818;9.088;2023-08-12T08:31:48;30.10;91.10
9167;DHT22;4618;48.818;9.088;2023-08-12T08:34:15;30.70;83.80
9167;DHT22;4618;48.818;9.088;2023-08-12T08:36:40;31.60;69.30
9167;DHT22;4618;48.818;9.088;2023-08-12T08:39:06;31.70;62.60
9167;DHT22;4618;48.818;9.088;2023-08-12T08:41:32;31.90;62.30
9167;DHT22;4618;48.818;9.088;2023-08-12T08:44:02;32.40;54.90
9167;DHT22;4618;48.818;9.088;2023-08-12T08:46:29;32.50;47.70
9167;DHT22;4618;48.818;9.088;2023-08-12T08:51:21;32.80;26.20
9167;DHT22;4618;48.818;9.088;2023-08-12T08:53:47;33.10;39.20
9167;DHT22;4618;48.818;9.088;2023-08-12T08:56:13;33.90;33.00
9167;DHT22;4618;48.818;9.088;2023-08-12T09:01:08;34.80;12.60
9167;DHT22;4618;48.818;9.088;2023-08-12T09:03:35;34.60;23.90
9167;DHT22;4618;48.818;9.088;2023-08-12T09:06:02;35.20;20.50
9167;DHT22;4618;48.818;9.088;2023-08-12T09:08:29;35.50;18.10
9167;DHT22;4618;48.818;9.088;2023-08-12T09:10:58;36.10;13.20
9167;DHT22;4618;48.818;9.088;2023-08-12T09:15:51;35.30;1.00
9167;DHT22;4618;48.818;9.088;2023-08-12T09:18:17;35.60;10.00
9167;DHT22;4618;48.818;9.088;2023-08-12T09:20:42;36.10;5.20
9167;DHT22;4618;48.818;9.088;2023-08-12T09:23:09;36.10;6.20
9167;DHT22;4618;48.818;9.088;2023-08-12T09:25:44;36.60;1.00
9167;DHT22;4618;48.818;9.088;2023-08-12T09:30:36;38.60;1.00
9167;DHT22;4618;48.818;9.088;2023-08-12T09:33:05;38.40;1.00
9167;DHT22;4618;48.818;9.088;2023-08-12T09:35:41;38.30;1.00
9167;DHT22;4618;48.818;9.088;2023-08-12T09:38:12;39.40;1.00
9167;DHT22;4618;48.818;9.088;2023-08-12T09:40:38;37.80;1.00
9167;DHT22;4618;48.818;9.088;2023-08-12T09:43:04;36.90;1.00
9167;DHT22;4618;48.818;9.088;2023-08-12T09:45:33;36.50;1.00
9167;DHT22;4618;48.818;9.088;2023-08-12T09:47:59;36.70;1.00
9167;DHT22;4618;48.818;9.088;2023-08-12T09:50:26;35.60;1.00
9167;DHT22;4618;48.818;9.088;2023-08-12T09:52:53;34.60;1.00
9167;DHT22;4618;48.818;9.088;2023-08-12T09:55:21;33.90;1.00
9167;DHT22;4618;48.818;9.088;2023-08-12T09:57:54;33.20;1.00
9167;DHT22;4618;48.818;9.088;2023-08-12T10:00:23;32.80;1.00
9167;DHT22;4618;48.818;9.088;2023-08-12T10:02:50;32.00;1.00
9167;DHT22;4618;48.818;9.088;2023-08-12T10:05:26;31.70;1.00
9167;DHT22;4618;48.818;9.088;2023-08-12T10:07:53;31.70;1.00
9167;DHT22;4618;48.818;9.088;2023-08-12T10:10:19;31.00;1.00
9167;DHT22;4618;48.818;9.088;2023-08-12T10:12:46;31.50;1.00
9167;DHT22;4618;48.818;9.088;2023-08-12T10:15:12;32.40;1.00
9167;DHT22;4618;48.818;9.088;2023-08-12T10:17:38;32.20;1.00
9167;DHT22;4618;48.818;9.088;2023-08-12T10:20:05;32.00;1.00
9167;DHT22;4618;48.818;9.088;2023-08-12T10:22:33;31.70;1.00
9167;DHT22;4618;48.818;9.088;2023-08-12T10:25:02;31.30;1.00
9167;DHT22;4618;48.818;9.088;2023-08-12T10:27:28;31.20;1.00
9167;DHT22;4618;48.818;9.088;2023-08-12T10:29:56;30.90;1.00
9167;DHT22;4618;48.818;9.088;2023-08-12T10:32:23;31.10;1.00
9167;DHT22;4618;48.818;9.088;2023-08-12T10:34:54;31.00;1.00
9167;DHT22;4618;48.818;9.088;2023-08-12T10:37:21;31.80;1.00
9167;DHT22;4618;48.818;9.088;2023-08-12T10:39:46;32.50;1.00
9167;DHT22;4618;48.818;9.088;2023-08-12T10:42:12;32.60;1.00
9167;DHT22;4618;48.818;9.088;2023-08-12T10:44:51;32.20;1.00
9167;DHT22;4618;48.818;9.088;2023-08-12T10:47:17;31.70;1.00
9167;DHT22;4618;48.818;9.088;2023-08-12T10:49:44;31.00;1.00
9167;DHT22;4618;48.818;9.088;2023-08-12T10:52:29;31.10;1.00
9167;DHT22;4618;48.818;9.088;2023-08-12T10:55:15;31.20;1.00
9167;DHT22;4618;48.818;9.088;2023-08-12T10:57:41;31.20;1.00
9167;DHT22;4618;48.818;9.088;2023-08-12T11:00:11;31.90;1.00
9167;DHT22;4618;48.818;9.088;2023-08-12T11:02:38;33.20;1.00
9167;DHT22;4618;48.818;9.088;2023-08-12T11:05:13;32.90;1.00
9167;DHT22;4618;48.818;9.088;2023-08-12T11:10:21;31.10;1.00
9167;DHT22;4618;48.818;9.088;2023-08-12T11:15:33;32.00;1.00
9167;DHT22;4618;48.818;9.088;2023-08-12T11:18:04;31.80;1.00
9167;DHT22;4618;48.818;9.088;2023-08-12T11:20:30;31.30;1.00
9167;DHT22;4618;48.818;9.088;2023-08-12T11:22:56;30.70;1.00
9167;DHT22;4618;48.818;9.088;2023-08-12T11:25:23;30.60;1.00
9167;DHT22;4618;48.818;9.088;2023-08-12T11:27:50;30.40;1.00
9167;DHT22;4618;48.818;9.088;2023-08-12T11:30:17;30.70;1.00
9167;DHT22;4618;48.818;9.088;2023-08-12T11:32:45;31.40;1.00
9167;DHT22;4618;48.818;9.088;2023-08-12T11:35:12;32.70;1.00
9167;DHT22;4618;48.818;9.088;2023-08-12T11:37:40;33.50;1.00
9167;DHT22;4618;48.818;9.088;2023-08-12T11:40:07;33.30;1.00
9167;DHT22;4618;48.818;9.088;2023-08-12T11:42:35;33.40;1.00
9167;DHT22;4618;48.818;9.088;2023-08-12T11:45:01;33.80;1.00
9167;DHT22;4618;48.818;9.088;2023-08-12T11:47:27;33.60;1.00
9167;DHT22;4618;48.818;9.088;2023-08-12T11:49:53;34.20;1.00
9167;DHT22;4618;48.818;9.088;2023-08-12T11:52:19;32.70;1.00
9167;DHT22;4618;48.818;9.088;2023-08-12T11:54:45;32.30;1.00
9167;DHT22;4618;48.818;9.088;2023-08-12T11:57:11;31.00;1.00
9167;DHT22;4618;48.818;9.088;2023-08-12T11:59:37;28.60;70.80
9167;DHT22;4618;48.818;9.088;2023-08-12T12:02:03;26.50;99.90
9167;DHT22;4618;48.818;9.088;2023-08-12T12:04:32;25.20;22.90
9167;DHT22;4618;48.818;9.088;2023-08-12T12:06:58;24.60;1.00
9167;DHT22;4618;48.818;9.088;2023-08-12T12:09:25;24.20;99.90
9167;DHT22;4618;48.818;9.088;2023-08-12T12:11:54;23.90;1.00
9167;DHT22;4618;48.818;9.088;2023-08-12T12:14:20;23.70;99.90
9167;DHT22;4618;48.818;9.088;2023-08-12T12:16:47;23.70;99.90
9167;DHT22;4618;48.818;9.088;2023-08-12T12:19:23;23.60;99.90
9167;DHT22;4618;48.818;9.088;2023-08-12T12:21:53;23.50;99.90
9167;DHT22;4618;48.818;9.088;2023-08-12T12:24:19;23.00;1.00
9167;DHT22;4618;48.818;9.088;2023-08-12T12:26:46;22.60;1.00
9167;DHT22;4618;48.818;9.088;2023-08-12T12:29:12;21.90;99.90
9167;DHT22;4618;48.818;9.088;2023-08-12T12:31:39;20.90;1.00
9167;DHT22;4618;48.818;9.088;2023-08-12T12:34:05;20.60;1.00
9167;DHT22;4618;48.818;9.088;2023-08-12T12:36:35;20.80;99.90
9167;DHT22;4618;48.818;9.088;2023-08-12T12:39:05;20.80;99.90
9167;DHT22;4618;48.818;9.088;2023-08-12T12:41:31;20.90;99.90
9167;DHT22;4618;48.818;9.088;2023-08-12T12:43:56;20.80;99.90
9167;DHT22;4618;48.818;9.088;2023-08-12T12:46:22;20.90;99.90
9167;DHT22;4618;48.818;9.088;2023-08-12T12:48:48;20.90;1.00
9167;DHT22;4618;48.818;9.088;2023-08-12T12:51:13;20.90;1.00
9167;DHT22;4618;48.818;9.088;2023-08-12T12:53:40;21.00;1.00
9167;DHT22;4618;48.818;9.088;2023-08-12T12:56:06;21.10;1.00
9167;DHT22;4618;48.818;9.088;2023-08-12T12:58:32;21.20;1.00
9167;DHT22;4618;48.818;9.088;2023-08-12T13:00:59;21.30;1.00
9167;DHT22;4618;48.818;9.088;2023-08-12T13:03:25;21.80;1.00
9167;DHT22;4618;48.818;9.088;2023-08-12T13:05:51;22.00;27.60
9167;DHT22;4618;48.818;9.088;2023-08-12T13:08:16;22.10;8.30
9167;DHT22;4618;48.818;9.088;2023-08-12T13:10:42;22.20;1.00
9167;DHT22;4618;48.818;9.088;2023-08-12T13:13:07;22.50;5.40
9167;DHT22;4618;48.818;9.088;2023-08-12T13:15:34;22.60;1.00
9167;DHT22;4618;48.818;9.088;2023-08-12T13:17:59;22.80;1.00
9167;DHT22;4618;48.818;9.088;2023-08-12T13:20:25;23.00;1.00
9167;DHT22;4618;48.818;9.088;2023-08-12T13:22:51;23.20;1.00
9167;DHT22;4618;48.818;9.088;2023-08-12T13:25:16;23.40;1.00
9167;DHT22;4618;48.818;9.088;2023-08-12T13:27:42;23.60;1.00
9167;DHT22;4618;48.818;9.088;2023-08-12T13:30:08;23.60;15.30
9167;DHT22;4618;48.818;9.088;2023-08-12T13:32:36;23.90;99.90
9167;DHT22;4618;48.818;9.088;2023-08-12T13:35:02;24.00;15.50
9167;DHT22;4618;48.818;9.088;2023-08-12T13:37:28;24.40;1.00
9167;DHT22;4618;48.818;9.088;2023-08-12T13:39:53;24.60;99.90
9167;DHT22;4618;48.818;9.088;2023-08-12T13:42:19;24.90;99.90
9167;DHT22;4618;48.818;9.088;2023-08-12T13:44:44;25.20;99.90
9167;DHT22;4618;48.818;9.088;2023-08-12T13:47:10;27.20;1.00
9167;DHT22;4618;48.818;9.088;2023-08-12T13:49:35;29.40;94.10
9167;DHT22;4618;48.818;9.088;2023-08-12T13:52:01;29.70;1.00
9167;DHT22;4618;48.818;9.088;2023-08-12T13:54:28;30.70;1.00
9167;DHT22;4618;48.818;9.088;2023-08-12T13:56:53;31.60;1.00
9167;DHT22;4618;48.818;9.088;2023-08-12T13:59:19;31.10;99.90
9167;DHT22;4618;48.818;9.088;2023-08-12T14:01:45;31.10;1.00
9167;DHT22;4618;48.818;9.088;2023-08-12T14:04:11;31.60;1.00
9167;DHT22;4618;48.818;9.088;2023-08-12T14:11:33;33.50;99.90
9167;DHT22;4618;48.818;9.088;2023-08-12T14:13:59;33.70;1.00
9167;DHT22;4618;48.818;9.088;2023-08-12T14:16:25;33.90;99.90
9167;DHT22;4618;48.818;9.088;2023-08-12T14:18:51;33.90;99.90
9167;DHT22;4618;48.818;9.088;2023-08-12T14:21:16;34.10;99.90
9167;DHT22;4618;48.818;9.088;2023-08-12T14:23:42;34.40;99.90
9167;DHT22;4618;48.818;9.088;2023-08-12T14:26:07;35.00;99.90
9167;DHT22;4618;48.818;9.088;2023-08-12T14:28:33;34.70;99.90
9167;DHT22;4618;48.818;9.088;2023-08-12T14:30:59;34.70;99.90
9167;DHT22;4618;48.818;9.088;2023-08-12T14:33:25;34.50;99.90
9167;DHT22;4618;48.818;9.088;2023-08-12T14:35:51;34.20;90.60
9167;DHT22;4618;48.818;9.088;2023-08-12T14:38:18;33.70;91.50
9167;DHT22;4618;48.818;9.088;2023-08-12T14:40:47;33.60;99.90
9167;DHT22;4618;48.818;9.088;2023-08-12T14:43:13;33.90;99.90
9167;DHT22;4618;48.818;9.088;2023-08-12T14:45:38;34.60;99.30
9167;DHT22;4618;48.818;9.088;2023-08-12T14:48:04;34.30;87.10
9167;DHT22;4618;48.818;9.088;2023-08-12T14:50:30;34.10;99.90
9167;DHT22;4618;48.818;9.088;2023-08-12T14:52:55;33.90;76.00
9167;DHT22;4618;48.818;9.088;2023-08-12T14:55:21;33.90;67.20
9167;DHT22;4618;48.818;9.088;2023-08-12T14:57:47;34.20;68.00
9167;DHT22;4618;48.818;9.088;2023-08-12T15:00:13;34.90;57.20
9167;DHT22;4618;48.818;9.088;2023-08-12T15:02:39;35.10;30.40
9167;DHT22;4618;48.818;9.088;2023-08-12T15:05:05;34.20;28.00
9167;DHT22;4618;48.818;9.088;2023-08-12T15:07:32;32.50;37.80
9167;DHT22;4618;48.818;9.088;2023-08-12T15:09:57;31.50;53.60
9167;DHT22;4618;48.818;9.088;2023-08-12T15:12:24;30.90;99.90
9167;DHT22;4618;48.818;9.088;2023-08-12T15:14:50;30.20;99.90
9167;DHT22;4618;48.818;9.088;2023-08-12T15:17:16;28.90;99.90
9167;DHT22;4618;48.818;9.088;2023-08-12T15:19:41;28.30;99.90
9167;DHT22;4618;48.818;9.088;2023-08-12T15:22:07;27.80;1.00
9167;DHT22;4618;48.818;9.088;2023-08-12T15:24:33;27.70;1.00
9167;DHT22;4618;48.818;9.088;2023-08-12T15:26:58;27.60;1.00
9167;DHT22;4618;48.818;9.088;2023-08-12T15:29:24;27.40;99.90
9167;DHT22;4618;48.818;9.088;2023-08-12T15:31:50;27.30;1.00
9167;DHT22;4618;48.818;9.088;2023-08-12T15:34:16;27.10;99.90
9167;DHT22;4618;48.818;9.088;2023-08-12T15:36:42;26.70;99.90
9167;DHT22;4618;48.818;9.088;2023-08-12T15:39:07;26.40;1.00
9167;DHT22;4618;48.818;9.088;2023-08-12T15:42:04;26.20;1.00
9167;DHT22;4618;48.818;9.088;2023-08-12T15:44:30;26.10;1.00
9167;DHT22;4618;48.818;9.088;2023-08-12T15:46:55;26.10;99.90
9167;DHT22;4618;48.818;9.088;2023-08-12T15:49:21;26.00;99.90
9167;DHT22;4618;48.818;9.088;2023-08-12T15:51:46;25.90;99.90
9167;DHT22;4618;48.818;9.088;2023-08-12T15:54:12;25.70;1.00
9167;DHT22;4618;48.818;9.088;2023-08-12T15:56:38;25.70;30.90
9167;DHT22;4618;48.818;9.088;2023-08-12T15:59:04;25.60;99.90
9167;DHT22;4618;48.818;9.088;2023-08-12T16:01:30;25.60;99.90
9167;DHT22;4618;48.818;9.088;2023-08-12T16:03:56;25.60;1.00
9167;DHT22;4618;48.818;9.088;2023-08-12T16:06:22;25.40;1.00
9167;DHT22;4618;48.818;9.088;2023-08-12T16:08:49;25.20;99.90
9167;DHT22;4618;48.818;9.088;2023-08-12T16:11:14;25.00;99.90
9167;DHT22;4618;48.818;9.088;2023-08-12T16:13:40;24.80;1.00
9167;DHT22;4618;48.818;9.088;2023-08-12T16:16:06;24.40;99.90
9167;DHT22;4618;48.818;9.088;2023-08-12T16:18:31;24.10;1.00
9167;DHT22;4618;48.818;9.088;2023-08-12T16:20:57;23.80;99.90
9167;DHT22;4618;48.818;9.088;2023-08-12T16:23:22;23.60;99.90
9167;DHT22;4618;48.818;9.088;2023-08-12T16:25:48;23.50;1.00